ESNG

Gällivare Airport

Gällivare, Sweden
METAR ESNG 211520Z AUTO 11006KT 9999 FEW008/// BKN010/// BKN014/// 02/M01 Q1001 RESHUP REUP
Observed Flight Rules
Apr-21 @ 15:20 UTC (19 minutes ago) Marginal Visual Flight Rules
Wind Visibility Clouds Conditions
110° at 6 knots 10,000+ meters
  • Few at 800' AGL
  • Broken at 1,000' AGL
  • Broken at 1,400' AGL
  • Unknown precipitation
Temperatures Readings
Current 2°C / 36°F
Dewpoint -1°C / 30°F
Humidity 81%
Altimeter 29.56" Hg
Pressure 1001 hPa
Elevation 310
METAR ESNG 211520Z AUTO 11006KT 9999 FEW008/// BKN010/// BKN014/// 02/M01 Q1001 RESHUP REUP
Observed Flight Rules
Apr-21 @ 15:20 UTC
(19 minutes ago)
MVFR
Wind Visibility
110° at 6 knots 10,000+ meters
Clouds
  • Few at 800' AGL
  • Broken at 1,000' AGL
  • Broken at 1,400' AGL
Conditions
  • Unknown precipitation
Temperature Dewpoint
2°C / 36°F -1°C / 30°F
Humidity Altimeter Pressure
81% 29.56" Hg 1001 hPa